Time;durP1;ratioP1;P1;durP2;ratioP2;P2;SDS_P1;SDS_P2;PMS_P1;PMS_P2;Temp;Humidity;BMP_temperature;BMP_pressure;BME280_temperature;BME280_humidity;BME280_pressure;Samples;Min_cycle;Max_cycle;Signal;HPM_P1;HPM_P2
2024/03/16 00:00:06;;;;;;;7.68;6.70;;;10.00;99.90;;;;;;4911180;28;20456;-50
2024/03/16 00:02:32;;;;;;;12.68;7.20;;;10.00;99.90;;;;;;4910095;28;20035;-48
2024/03/16 00:04:58;;;;;;;11.30;6.97;;;10.00;99.90;;;;;;4934184;28;20041;-49
2024/03/16 00:07:26;;;;;;;10.52;6.75;;;9.90;99.90;;;;;;4892389;28;20813;-52
2024/03/16 00:09:51;;;;;;;12.95;6.60;;;9.90;99.90;;;;;;4968087;28;20025;-53
2024/03/16 00:12:17;;;;;;;11.38;6.53;;;9.90;99.90;;;;;;4910010;28;20022;-52
2024/03/16 00:14:44;;;;;;;10.95;6.40;;;9.90;99.90;;;;;;4869178;28;22352;-48
2024/03/16 00:17:10;;;;;;;8.18;5.93;;;9.90;99.90;;;;;;4927237;28;22380;-48
2024/03/16 00:19:36;;;;;;;9.68;6.80;;;9.90;99.90;;;;;;4919009;28;20026;-51
2024/03/16 00:22:01;;;;;;;11.23;6.72;;;9.90;99.90;;;;;;4898480;28;20453;-61
2024/03/16 00:24:28;;;;;;;9.52;6.78;;;9.90;99.90;;;;;;4964593;28;20457;-47
2024/03/16 00:26:54;;;;;;;10.75;6.25;;;9.90;99.90;;;;;;4896228;28;20713;-50
2024/03/16 00:29:19;;;;;;;13.63;7.07;;;9.90;99.90;;;;;;4934058;28;20045;-52
2024/03/16 00:31:48;;;;;;;10.25;5.85;;;9.90;99.90;;;;;;4879386;28;20022;-49
2024/03/16 00:34:14;;;;;;;10.13;6.32;;;9.90;99.90;;;;;;4881631;28;21729;-49
2024/03/16 00:36:40;;;;;;;9.02;6.28;;;9.90;99.90;;;;;;4954903;28;20037;-51
2024/03/16 00:39:14;;;;;;;7.13;5.82;;;9.90;99.90;;;;;;4870700;28;20026;-47
2024/03/16 00:41:44;;;;;;;8.77;5.93;;;9.90;99.90;;;;;;4864838;28;20698;-52
2024/03/16 00:44:09;;;;;;;11.15;6.63;;;9.90;99.90;;;;;;4929860;28;21244;-48
2024/03/16 00:46:35;;;;;;;11.13;6.10;;;9.90;99.90;;;;;;4921066;28;20084;-50
2024/03/16 00:49:02;;;;;;;13.35;7.13;;;9.90;99.90;;;;;;4916140;28;20057;-57
2024/03/16 00:51:28;;;;;;;9.43;5.93;;;9.90;99.90;;;;;;4929782;28;20117;-49
2024/03/16 00:53:57;;;;;;;8.25;5.55;;;9.90;99.90;;;;;;4852606;28;20765;-50
2024/03/16 00:56:24;;;;;;;10.73;6.03;;;9.90;99.90;;;;;;5002115;28;20030;-49
2024/03/16 00:58:49;;;;;;;10.55;6.32;;;9.90;99.90;;;;;;4982795;28;20038;-59
2024/03/16 01:01:15;;;;;;;12.02;6.25;;;9.90;99.90;;;;;;4972441;28;20026;-47
2024/03/16 01:03:41;;;;;;;11.05;6.78;;;10.00;99.90;;;;;;4989166;28;20122;-48
2024/03/16 01:06:06;;;;;;;12.02;6.28;;;10.00;99.90;;;;;;4990946;28;20031;-49
2024/03/16 01:08:32;;;;;;;12.15;6.88;;;10.00;99.90;;;;;;4975955;28;20447;-48
2024/03/16 01:10:58;;;;;;;12.90;6.50;;;10.00;99.90;;;;;;4979020;28;20106;-50
2024/03/16 01:13:25;;;;;;;13.45;6.40;;;10.00;99.90;;;;;;4993987;28;20466;-49
2024/03/16 01:15:51;;;;;;;13.95;7.25;;;10.00;99.90;;;;;;4976152;28;20465;-52
2024/03/16 01:18:17;;;;;;;12.30;7.47;;;10.00;99.90;;;;;;4987844;28;20049;-48
2024/03/16 01:20:44;;;;;;;17.65;8.80;;;10.10;99.90;;;;;;4975590;28;20046;-48
2024/03/16 01:23:10;;;;;;;14.00;7.65;;;10.10;99.90;;;;;;4964595;28;22197;-47
2024/03/16 01:25:35;;;;;;;16.67;8.52;;;10.10;99.90;;;;;;4990247;28;20026;-48
2024/03/16 01:28:01;;;;;;;15.50;7.82;;;10.10;99.90;;;;;;4970454;28;20026;-50
2024/03/16 01:30:26;;;;;;;16.35;8.00;;;10.10;99.90;;;;;;4971607;28;20100;-48
2024/03/16 01:32:52;;;;;;;14.30;7.97;;;10.10;99.90;;;;;;4969067;28;20023;-48
2024/03/16 01:35:18;;;;;;;14.82;8.73;;;10.10;99.90;;;;;;4974695;28;20052;-47
2024/03/16 01:37:44;;;;;;;12.65;7.20;;;10.10;99.90;;;;;;4987690;28;20064;-50
2024/03/16 01:40:15;;;;;;;14.80;7.13;;;10.10;99.90;;;;;;4967585;28;20029;-51
2024/03/16 01:42:41;;;;;;;13.48;8.18;;;10.10;99.90;;;;;;4963334;28;20030;-49
2024/03/16 01:45:10;;;;;;;14.27;8.60;;;10.10;99.90;;;;;;4972585;28;20529;-47
2024/03/16 01:47:37;;;;;;;11.75;7.45;;;10.10;99.90;;;;;;4954869;28;20026;-51
2024/03/16 01:50:03;;;;;;;10.25;7.15;;;10.20;99.90;;;;;;4964669;28;20030;-50
2024/03/16 01:52:29;;;;;;;12.93;8.05;;;10.10;99.90;;;;;;4983669;28;20032;-48
2024/03/16 01:54:55;;;;;;;13.98;7.55;;;10.10;99.90;;;;;;4950690;28;20162;-48
2024/03/16 01:57:20;;;;;;;20.17;8.52;;;10.10;99.90;;;;;;4963549;28;20117;-48
2024/03/16 01:59:46;;;;;;;15.98;7.53;;;10.10;99.90;;;;;;4950260;28;20053;-46
2024/03/16 02:02:40;;;;;;;14.20;8.00;;;10.10;99.90;;;;;;4947247;28;21323;-52
2024/03/16 02:05:07;;;;;;;16.98;9.05;;;10.10;99.90;;;;;;4942359;28;20037;-49
2024/03/16 02:07:39;;;;;;;14.77;7.50;;;10.10;99.90;;;;;;4981120;28;20584;-50
2024/03/16 02:10:09;;;;;;;12.10;7.82;;;10.10;99.90;;;;;;4948576;28;20013;-48
2024/03/16 02:12:35;;;;;;;11.23;7.53;;;10.10;99.90;;;;;;4963400;28;20022;-48
2024/03/16 02:15:02;;;;;;;16.15;8.80;;;10.10;99.90;;;;;;4979826;28;20032;-51
2024/03/16 02:17:28;;;;;;;10.77;7.60;;;10.10;99.90;;;;;;4953596;28;20029;-48
2024/03/16 02:19:53;;;;;;;13.07;8.20;;;10.10;99.90;;;;;;4956689;28;20034;-57
2024/03/16 02:22:19;;;;;;;17.85;8.75;;;10.10;99.90;;;;;;4974797;28;20030;-47
2024/03/16 02:24:46;;;;;;;17.33;8.75;;;10.10;99.90;;;;;;4943650;28;21460;-48
2024/03/16 02:27:12;;;;;;;16.42;9.80;;;10.10;99.90;;;;;;4965037;28;20084;-51
2024/03/16 02:29:38;;;;;;;16.23;9.27;;;10.10;99.90;;;;;;4941508;28;20134;-46
2024/03/16 02:32:08;;;;;;;15.75;9.18;;;10.10;99.90;;;;;;4951042;28;20441;-49
2024/03/16 02:34:35;;;;;;;14.43;9.45;;;10.10;99.90;;;;;;4978572;28;20033;-50
2024/03/16 02:37:01;;;;;;;14.75;9.85;;;10.10;99.90;;;;;;4952927;28;20034;-52
2024/03/16 02:39:27;;;;;;;14.82;9.43;;;10.10;99.90;;;;;;4957346;28;20045;-50
2024/03/16 02:41:55;;;;;;;16.35;9.50;;;10.10;99.90;;;;;;4976673;28;20025;-53
2024/03/16 02:44:21;;;;;;;13.23;10.02;;;10.10;99.90;;;;;;4940663;28;20029;-46
2024/03/16 02:46:47;;;;;;;17.42;9.55;;;10.10;99.90;;;;;;4986539;28;20034;-49
2024/03/16 02:49:12;;;;;;;14.00;9.40;;;10.10;99.90;;;;;;4939502;28;20026;-54
2024/03/16 02:51:38;;;;;;;17.42;10.10;;;10.10;99.90;;;;;;4950828;28;20093;-48
2024/03/16 02:54:06;;;;;;;17.40;10.55;;;10.10;99.90;;;;;;4972737;28;20061;-49
2024/03/16 02:56:32;;;;;;;19.58;10.20;;;10.20;99.90;;;;;;4949690;28;20497;-49
2024/03/16 02:58:58;;;;;;;19.17;10.18;;;10.10;99.90;;;;;;4958100;28;20045;-57
2024/03/16 03:01:24;;;;;;;20.13;10.18;;;10.10;99.90;;;;;;4987227;28;20022;-49
2024/03/16 03:03:50;;;;;;;16.70;9.35;;;10.10;99.90;;;;;;4931882;28;20482;-47
2024/03/16 03:06:15;;;;;;;16.98;10.18;;;10.10;99.90;;;;;;4962331;28;20033;-50
2024/03/16 03:08:43;;;;;;;16.85;9.85;;;10.10;99.90;;;;;;4947503;28;20673;-48
2024/03/16 03:11:09;;;;;;;13.98;9.45;;;10.00;99.90;;;;;;4948287;28;21813;-54
2024/03/16 03:13:35;;;;;;;15.80;9.15;;;10.00;99.90;;;;;;4985069;28;20026;-48
2024/03/16 03:16:00;;;;;;;14.85;9.00;;;10.00;99.90;;;;;;4940693;28;20025;-49
2024/03/16 03:18:26;;;;;;;17.27;10.13;;;10.00;99.90;;;;;;4942452;28;20602;-57
2024/03/16 03:20:52;;;;;;;15.73;9.40;;;10.00;99.90;;;;;;4959746;28;20022;-51
2024/03/16 03:23:17;;;;;;;17.23;9.77;;;10.00;99.90;;;;;;4938548;28;20723;-47
2024/03/16 03:25:44;;;;;;;16.35;9.25;;;10.00;99.90;;;;;;4975837;28;20088;-49
2024/03/16 03:28:10;;;;;;;15.05;10.25;;;10.00;99.90;;;;;;4960737;28;20034;-46
2024/03/16 03:30:36;;;;;;;18.50;9.63;;;10.00;99.90;;;;;;4957131;28;20056;-48
2024/03/16 03:33:02;;;;;;;19.17;9.13;;;10.00;99.90;;;;;;4955549;28;20116;-51
2024/03/16 03:35:28;;;;;;;13.68;9.35;;;10.10;99.90;;;;;;4945089;28;20458;-49
2024/03/16 03:37:54;;;;;;;18.10;9.57;;;10.10;99.90;;;;;;4962765;28;20037;-57
2024/03/16 03:40:20;;;;;;;15.65;9.63;;;10.10;99.90;;;;;;4963321;28;20109;-49
2024/03/16 03:42:48;;;;;;;14.63;9.40;;;10.10;99.90;;;;;;4932541;28;21571;-49
2024/03/16 03:45:24;;;;;;;14.55;9.32;;;10.10;99.90;;;;;;4949883;28;21665;-49
2024/03/16 03:48:00;;;;;;;17.30;9.52;;;10.10;99.90;;;;;;4946695;28;20734;-47
2024/03/16 03:50:28;;;;;;;19.67;9.43;;;10.10;99.90;;;;;;4937305;28;20189;-49
2024/03/16 03:52:55;;;;;;;19.52;10.05;;;10.10;99.90;;;;;;4949474;28;20037;-57
2024/03/16 03:55:22;;;;;;;15.35;8.77;;;10.10;99.90;;;;;;4956393;28;20422;-48
2024/03/16 03:57:47;;;;;;;19.25;9.15;;;10.10;99.90;;;;;;4924902;28;21743;-49
2024/03/16 04:00:16;;;;;;;14.90;8.65;;;10.10;99.90;;;;;;4948958;28;21181;-49
2024/03/16 04:02:41;;;;;;;15.85;8.95;;;10.10;99.90;;;;;;4920074;28;20113;-50
2024/03/16 04:05:07;;;;;;;18.30;9.20;;;10.10;99.90;;;;;;4923937;28;20120;-50
2024/03/16 04:07:32;;;;;;;15.02;8.55;;;10.10;99.90;;;;;;4967188;28;20057;-47
2024/03/16 04:10:00;;;;;;;16.88;9.63;;;10.10;99.90;;;;;;4936192;28;20045;-50
2024/03/16 04:12:26;;;;;;;16.60;9.38;;;10.10;99.90;;;;;;4942540;28;20036;-57
2024/03/16 04:14:55;;;;;;;18.15;10.05;;;10.20;99.90;;;;;;4949491;28;20030;-49
2024/03/16 04:17:21;;;;;;;16.88;9.88;;;10.20;99.90;;;;;;4925944;28;20033;-50
2024/03/16 04:19:47;;;;;;;18.10;9.55;;;10.20;99.90;;;;;;4966453;28;20032;-49
2024/03/16 04:22:16;;;;;;;17.90;10.52;;;10.20;99.90;;;;;;4941901;28;20602;-46
2024/03/16 04:24:41;;;;;;;18.05;9.40;;;10.20;99.90;;;;;;4938317;28;20057;-48
2024/03/16 04:27:07;;;;;;;15.77;9.93;;;10.20;99.90;;;;;;4960360;28;20112;-48
2024/03/16 04:29:32;;;;;;;15.25;9.18;;;10.20;99.90;;;;;;4912838;28;20121;-51
2024/03/16 04:32:01;;;;;;;14.75;9.95;;;10.20;99.90;;;;;;4940604;28;20013;-58
2024/03/16 04:34:27;;;;;;;19.83;9.73;;;10.20;99.90;;;;;;4993729;28;20018;-48
2024/03/16 04:36:53;;;;;;;18.60;9.45;;;10.20;99.90;;;;;;4972439;28;20087;-50
2024/03/16 04:39:22;;;;;;;13.98;9.82;;;10.20;99.90;;;;;;4987112;28;20030;-46
2024/03/16 04:41:49;;;;;;;14.75;8.77;;;10.20;99.90;;;;;;4995743;23;20095;-51
2024/03/16 04:44:15;;;;;;;17.13;9.73;;;10.20;99.90;;;;;;4971372;28;20106;-49
2024/03/16 04:46:41;;;;;;;13.27;9.40;;;10.20;99.90;;;;;;4993780;28;20425;-48
2024/03/16 04:49:07;;;;;;;12.23;8.60;;;10.20;99.90;;;;;;4969509;28;20026;-52
2024/03/16 04:51:33;;;;;;;13.63;8.85;;;10.20;99.90;;;;;;4974479;28;20058;-51
2024/03/16 04:54:01;;;;;;;15.27;9.60;;;10.10;99.90;;;;;;4985427;28;20513;-52
2024/03/16 04:56:26;;;;;;;13.93;8.52;;;10.10;99.90;;;;;;4970029;28;20038;-48
2024/03/16 04:58:54;;;;;;;17.60;10.25;;;10.10;99.90;;;;;;4984522;28;20021;-47
2024/03/16 05:01:20;;;;;;;13.45;9.65;;;10.10;99.90;;;;;;4975251;28;20045;-49
2024/03/16 05:03:46;;;;;;;16.27;8.93;;;10.10;99.90;;;;;;4964815;28;20037;-52
2024/03/16 05:06:12;;;;;;;14.05;8.55;;;10.10;99.90;;;;;;4983120;28;20037;-51
2024/03/16 05:08:38;;;;;;;10.77;5.95;;;10.10;99.90;;;;;;4971354;28;20045;-52
2024/03/16 05:11:04;;;;;;;10.98;4.95;;;10.00;99.90;;;;;;4965261;28;20022;-57
2024/03/16 05:13:29;;;;;;;5.43;3.15;;;9.80;99.90;;;;;;4990158;28;20402;-55
2024/03/16 05:15:55;;;;;;;5.07;3.28;;;9.70;99.90;;;;;;4962113;28;20638;-53
2024/03/16 05:18:21;;;;;;;7.10;3.15;;;9.60;99.90;;;;;;4989358;28;20060;-52
2024/03/16 05:20:46;;;;;;;7.47;3.20;;;9.40;99.90;;;;;;4973008;28;20026;-52
2024/03/16 05:23:14;;;;;;;2.60;1.85;;;9.40;99.90;;;;;;4970297;28;20049;-53
2024/03/16 05:25:45;;;;;;;2.97;1.95;;;9.40;99.90;;;;;;4984931;28;20048;-54
2024/03/16 05:28:10;;;;;;;3.33;1.77;;;9.30;99.90;;;;;;4969729;28;20033;-53
2024/03/16 05:30:37;;;;;;;2.15;1.63;;;9.20;99.90;;;;;;4968364;28;20658;-54
2024/03/16 05:33:04;;;;;;;2.17;1.23;;;9.20;99.90;;;;;;4987423;28;20014;-52
2024/03/16 05:35:29;;;;;;;6.68;1.95;;;9.10;99.90;;;;;;4970251;28;20049;-53
2024/03/16 05:37:55;;;;;;;1.45;1.30;;;9.00;99.90;;;;;;4985111;28;20052;-53
2024/03/16 05:40:21;;;;;;;1.95;1.40;;;8.90;99.90;;;;;;4970736;28;20633;-52
2024/03/16 05:42:46;;;;;;;2.05;1.48;;;8.90;99.90;;;;;;4967375;28;20062;-56
2024/03/16 05:45:12;;;;;;;4.82;1.85;;;8.80;99.90;;;;;;4986985;28;20057;-51
2024/03/16 05:47:38;;;;;;;3.08;1.63;;;8.80;99.90;;;;;;4966581;28;20030;-52
2024/03/16 05:50:04;;;;;;;3.90;2.10;;;8.80;99.90;;;;;;4967510;28;20025;-56
2024/03/16 05:52:30;;;;;;;2.47;1.83;;;8.70;99.90;;;;;;4981355;28;20022;-53
2024/03/16 05:54:55;;;;;;;5.30;2.40;;;8.60;99.90;;;;;;4964782;28;20033;-50
2024/03/16 05:57:21;;;;;;;4.38;2.20;;;8.60;99.90;;;;;;4987436;28;20548;-50
2024/03/16 05:59:48;;;;;;;4.32;2.55;;;8.60;99.90;;;;;;4966727;28;20027;-53
2024/03/16 06:02:14;;;;;;;6.68;3.15;;;8.50;99.90;;;;;;4902783;28;20108;-53
2024/03/16 06:04:39;;;;;;;4.78;3.20;;;8.50;99.90;;;;;;4969095;28;20025;-50
2024/03/16 06:07:05;;;;;;;8.70;3.80;;;8.40;99.90;;;;;;4900866;28;20030;-51
2024/03/16 06:09:31;;;;;;;10.43;3.67;;;8.40;99.90;;;;;;4938511;28;20165;-59
2024/03/16 06:11:56;;;;;;;7.65;3.50;;;8.30;99.90;;;;;;4928829;28;20034;-54
2024/03/16 06:14:22;;;;;;;11.63;4.00;;;8.30;99.90;;;;;;4906801;28;22546;-53
2024/03/16 06:16:48;;;;;;;7.85;4.07;;;8.30;99.90;;;;;;4970877;28;20162;-51
2024/03/16 06:19:13;;;;;;;8.75;3.67;;;8.20;99.90;;;;;;4906009;28;20030;-52
2024/03/16 06:21:39;;;;;;;7.40;4.07;;;8.20;99.90;;;;;;4916378;28;20033;-52
2024/03/16 06:24:05;;;;;;;7.00;3.47;;;8.20;99.90;;;;;;4962475;28;20022;-53
2024/03/16 06:26:36;;;;;;;11.40;3.97;;;8.20;99.90;;;;;;4932206;28;20045;-54
2024/03/16 06:29:05;;;;;;;6.40;3.83;;;8.20;99.90;;;;;;4899260;28;20456;-58
2024/03/16 06:31:38;;;;;;;5.97;3.25;;;8.10;99.90;;;;;;4972630;28;20037;-51
2024/03/16 06:34:04;;;;;;;5.72;2.78;;;8.10;99.90;;;;;;4906369;28;20077;-52
2024/03/16 06:36:34;;;;;;;11.45;3.92;;;8.10;99.90;;;;;;4931909;28;20650;-51
2024/03/16 06:39:00;;;;;;;8.40;3.00;;;8.00;99.90;;;;;;4958189;28;20032;-51
2024/03/16 06:41:26;;;;;;;5.18;2.88;;;8.00;99.90;;;;;;4950469;28;20080;-55
2024/03/16 06:43:52;;;;;;;6.28;2.85;;;7.90;99.90;;;;;;4974917;28;20061;-51
2024/03/16 06:46:19;;;;;;;10.55;4.43;;;7.90;99.90;;;;;;4899276;28;20065;-53
2024/03/16 06:48:45;;;;;;;7.75;4.90;;;7.80;99.90;;;;;;4904138;28;21636;-54
2024/03/16 06:51:11;;;;;;;9.40;4.97;;;7.80;99.90;;;;;;4921465;28;21737;-55
2024/03/16 06:53:36;;;;;;;8.32;4.22;;;7.70;99.90;;;;;;4922563;28;20052;-49
2024/03/16 06:56:04;;;;;;;6.82;3.90;;;7.60;99.90;;;;;;4875945;28;20022;-57
2024/03/16 06:58:31;;;;;;;6.15;3.22;;;7.50;99.90;;;;;;4956477;28;20030;-53
2024/03/16 07:00:57;;;;;;;6.07;2.95;;;7.40;99.90;;;;;;4911185;28;20489;-50
2024/03/16 07:03:22;;;;;;;6.18;2.70;;;7.40;99.90;;;;;;4923031;28;20026;-49
2024/03/16 07:05:48;;;;;;;8.18;2.63;;;7.40;99.90;;;;;;4944038;28;20060;-51
2024/03/16 07:08:17;;;;;;;6.57;2.47;;;7.30;99.90;;;;;;4901275;28;20477;-52
2024/03/16 07:10:45;;;;;;;4.72;2.17;;;7.30;99.90;;;;;;4967589;28;20030;-53
2024/03/16 07:13:11;;;;;;;7.60;2.05;;;7.20;99.90;;;;;;4891044;28;20100;-52
2024/03/16 07:15:36;;;;;;;6.07;2.17;;;7.20;99.90;;;;;;4920335;28;20548;-54
2024/03/16 07:18:03;;;;;;;5.75;2.17;;;7.20;99.90;;;;;;4955493;28;20036;-50
2024/03/16 07:20:30;;;;;;;10.60;2.28;;;7.20;99.90;;;;;;4932378;28;21339;-51
2024/03/16 07:22:56;;;;;;;6.75;2.00;;;7.20;99.90;;;;;;4981645;28;20034;-56
2024/03/16 07:25:22;;;;;;;8.73;2.78;;;7.20;99.90;;;;;;4923706;28;20060;-51
2024/03/16 07:27:48;;;;;;;6.35;2.33;;;7.20;99.90;;;;;;4931655;28;20057;-51
2024/03/16 07:30:13;;;;;;;7.32;2.38;;;7.20;99.90;;;;;;4960483;28;20045;-50
2024/03/16 07:32:39;;;;;;;12.77;2.65;;;7.10;99.90;;;;;;4968503;28;20026;-50
2024/03/16 07:35:06;;;;;;;14.40;3.40;;;7.10;99.90;;;;;;4956076;28;20053;-50
2024/03/16 07:37:32;;;;;;;13.30;3.30;;;7.10;99.90;;;;;;4978997;28;20038;-56
2024/03/16 07:39:58;;;;;;;8.10;3.03;;;7.10;99.90;;;;;;4994510;28;20120;-52
2024/03/16 07:42:24;;;;;;;9.60;3.75;;;7.10;99.90;;;;;;4987567;28;20659;-56
2024/03/16 07:44:50;;;;;;;7.95;3.88;;;7.10;99.90;;;;;;4989597;28;20053;-57
2024/03/16 07:47:15;;;;;;;11.77;4.25;;;7.00;99.90;;;;;;4982875;28;20045;-49
2024/03/16 07:49:41;;;;;;;6.30;4.28;;;7.00;99.90;;;;;;4959304;28;20110;-51
2024/03/16 07:52:07;;;;;;;8.30;4.65;;;7.00;99.90;;;;;;4999737;28;20490;-51
2024/03/16 07:54:36;;;;;;;13.52;5.05;;;6.90;99.90;;;;;;4967424;28;20371;-53
2024/03/16 07:57:01;;;;;;;8.40;3.60;;;6.90;99.90;;;;;;4971914;28;20128;-51
2024/03/16 07:59:27;;;;;;;9.23;2.92;;;6.80;99.90;;;;;;4992138;28;20175;-49
2024/03/16 08:01:53;;;;;;;6.78;2.80;;;6.80;99.90;;;;;;4963578;28;20061;-50
2024/03/16 08:04:18;;;;;;;4.63;1.63;;;6.80;99.90;;;;;;4971640;28;20056;-53
2024/03/16 08:06:44;;;;;;;3.80;1.20;;;6.80;99.90;;;;;;4976190;28;20510;-52
2024/03/16 08:09:11;;;;;;;9.82;1.92;;;6.70;99.90;;;;;;4953484;28;21267;-49
2024/03/16 08:11:42;;;;;;;8.20;1.45;;;6.70;99.90;;;;;;4985395;28;20041;-49
2024/03/16 08:14:11;;;;;;;4.13;1.25;;;6.70;99.90;;;;;;4953162;28;20044;-51
2024/03/16 08:16:36;;;;;;;6.25;1.23;;;6.70;99.90;;;;;;4942815;28;20026;-53
2024/03/16 08:19:02;;;;;;;8.55;2.03;;;6.70;99.90;;;;;;4980336;28;20044;-49
2024/03/16 08:21:28;;;;;;;5.60;1.80;;;6.70;99.90;;;;;;4949147;28;20033;-53
2024/03/16 08:23:53;;;;;;;3.00;1.40;;;6.70;99.90;;;;;;4961786;28;20759;-56
2024/03/16 08:26:19;;;;;;;5.75;1.55;;;6.70;99.90;;;;;;4974552;28;20084;-50
2024/03/16 08:28:45;;;;;;;4.50;1.40;;;6.70;99.90;;;;;;4960709;28;21790;-49
2024/03/16 08:31:14;;;;;;;6.70;1.70;;;6.70;99.90;;;;;;4987552;28;20065;-52
2024/03/16 08:33:39;;;;;;;5.35;1.63;;;6.80;99.90;;;;;;4959734;28;20448;-52
2024/03/16 08:36:05;;;;;;;4.72;1.58;;;6.90;99.90;;;;;;4954611;28;20054;-52
2024/03/16 08:38:32;;;;;;;5.60;1.38;;;6.90;99.90;;;;;;4981234;28;20036;-49
2024/03/16 08:40:58;;;;;;;8.88;1.40;;;6.90;99.90;;;;;;4945523;28;20036;-48
2024/03/16 08:43:25;;;;;;;5.88;1.02;;;6.90;99.90;;;;;;4965171;28;20037;-56
2024/03/16 08:45:50;;;;;;;4.45;1.48;;;6.90;99.90;;;;;;4964946;28;20049;-49
2024/03/16 08:48:16;;;;;;;3.50;1.02;;;6.90;99.90;;;;;;4955332;28;21816;-48
2024/03/16 08:50:41;;;;;;;5.18;1.48;;;6.90;99.90;;;;;;4983546;28;20149;-52
2024/03/16 08:53:07;;;;;;;6.15;1.08;;;6.90;99.90;;;;;;4944866;28;20537;-52
2024/03/16 08:55:32;;;;;;;5.70;1.35;;;7.00;99.90;;;;;;4953259;28;20045;-49
2024/03/16 08:57:58;;;;;;;5.80;1.23;;;7.00;99.90;;;;;;4960375;28;20050;-49
2024/03/16 09:00:25;;;;;;;5.60;1.42;;;7.00;99.90;;;;;;4932356;28;20030;-49
2024/03/16 09:02:52;;;;;;;2.58;1.30;;;7.00;99.90;;;;;;4974625;28;20537;-56
2024/03/16 09:05:21;;;;;;;4.97;1.33;;;7.00;99.90;;;;;;4960760;28;20162;-52
2024/03/16 09:07:47;;;;;;;6.53;1.83;;;7.10;99.90;;;;;;4936945;28;21263;-46
2024/03/16 09:10:13;;;;;;;4.75;1.42;;;7.20;99.90;;;;;;4971450;28;20045;-49
2024/03/16 09:12:38;;;;;;;4.90;1.27;;;7.30;99.90;;;;;;4944481;28;20064;-50
2024/03/16 09:15:08;;;;;;;4.40;1.58;;;7.30;99.90;;;;;;4948958;28;20030;-49
2024/03/16 09:17:34;;;;;;;7.82;2.50;;;7.40;99.90;;;;;;4976598;28;20575;-51
2024/03/16 09:20:07;;;;;;;9.35;1.67;;;7.60;99.90;;;;;;4948699;28;20085;-51
2024/03/16 09:22:38;;;;;;;5.85;1.30;;;7.70;99.90;;;;;;4944616;28;20038;-52
2024/03/16 09:25:05;;;;;;;5.13;1.25;;;7.80;99.90;;;;;;4973400;28;20030;-52
2024/03/16 09:27:34;;;;;;;4.18;1.55;;;7.90;99.90;;;;;;4950610;28;20033;-49
2024/03/16 09:29:59;;;;;;;3.78;1.00;;;8.00;99.90;;;;;;4949541;28;20442;-55
2024/03/16 09:32:25;;;;;;;3.60;1.00;;;8.00;99.90;;;;;;4974014;28;20018;-49
2024/03/16 09:34:51;;;;;;;7.47;1.42;;;8.00;99.90;;;;;;4946361;28;20033;-50
2024/03/16 09:37:17;;;;;;;4.15;1.80;;;8.00;99.90;;;;;;4977981;28;20048;-49
2024/03/16 09:39:43;;;;;;;6.80;1.10;;;7.90;99.90;;;;;;4933858;28;20030;-51
2024/03/16 09:42:10;;;;;;;5.80;1.63;;;7.90;99.90;;;;;;4955625;28;20030;-52
2024/03/16 09:44:35;;;;;;;4.75;1.60;;;7.80;99.90;;;;;;4980124;28;20674;-51
2024/03/16 09:47:03;;;;;;;3.88;1.50;;;7.70;99.90;;;;;;4941322;28;20044;-48
2024/03/16 09:49:30;;;;;;;10.98;1.77;;;7.70;99.90;;;;;;4944636;28;20038;-53
2024/03/16 09:52:00;;;;;;;5.65;1.52;;;7.70;99.90;;;;;;4968824;28;20045;-49
2024/03/16 09:54:28;;;;;;;10.82;1.75;;;7.70;99.90;;;;;;4943989;28;20561;-49
2024/03/16 09:56:54;;;;;;;6.88;1.40;;;7.70;99.90;;;;;;4959532;28;20053;-50
2024/03/16 09:59:21;;;;;;;2.80;1.20;;;7.80;99.90;;;;;;4944324;28;20172;-51
2024/03/16 10:01:49;;;;;;;3.05;0.90;;;7.80;99.90;;;;;;4942039;28;21164;-52
2024/03/16 10:04:16;;;;;;;5.78;1.27;;;7.80;99.90;;;;;;4959925;28;21390;-50
2024/03/16 10:06:42;;;;;;;7.63;1.52;;;7.90;99.90;;;;;;4929186;28;20193;-52
2024/03/16 10:09:13;;;;;;;2.35;1.35;;;7.90;99.90;;;;;;4940177;28;20117;-48
2024/03/16 10:11:39;;;;;;;5.82;1.60;;;8.00;99.90;;;;;;4969704;28;20014;-50
2024/03/16 10:14:09;;;;;;;4.45;1.67;;;8.00;99.90;;;;;;4938145;28;20037;-52
2024/03/16 10:16:35;;;;;;;6.90;1.48;;;8.10;99.90;;;;;;4930987;28;20141;-49
2024/03/16 10:19:01;;;;;;;2.63;1.17;;;8.10;99.90;;;;;;4955040;28;20044;-50
2024/03/16 10:21:29;;;;;;;2.47;0.65;;;8.20;99.90;;;;;;4919041;28;20025;-53
2024/03/16 10:24:00;;;;;;;4.22;1.40;;;8.30;99.90;;;;;;4962427;28;20030;-50
2024/03/16 10:26:32;;;;;;;5.85;1.55;;;8.30;99.90;;;;;;4962630;28;20335;-50
2024/03/16 10:28:59;;;;;;;4.00;1.55;;;8.30;99.90;;;;;;4916278;28;20627;-48
2024/03/16 10:31:26;;;;;;;9.63;1.35;;;8.40;99.90;;;;;;4947431;28;20687;-55
2024/03/16 10:33:56;;;;;;;4.45;1.40;;;8.30;99.90;;;;;;4946532;28;20037;-47
2024/03/16 10:36:21;;;;;;;4.38;1.38;;;8.30;99.90;;;;;;4915065;28;21712;-49
2024/03/16 10:38:47;;;;;;;5.80;1.70;;;8.30;99.90;;;;;;4965680;28;20662;-51
2024/03/16 10:41:16;;;;;;;9.75;1.50;;;8.40;99.90;;;;;;4921053;23;20046;-52
2024/03/16 10:43:42;;;;;;;5.20;1.48;;;8.40;99.90;;;;;;4909961;28;20038;-48
2024/03/16 10:46:15;;;;;;;7.25;1.42;;;8.50;99.90;;;;;;4946402;28;20029;-49
2024/03/16 10:48:44;;;;;;;9.88;1.70;;;8.60;99.90;;;;;;4923100;28;20548;-49
2024/03/16 10:51:17;;;;;;;8.55;1.88;;;8.80;99.90;;;;;;4915296;28;21415;-50
2024/03/16 10:53:42;;;;;;;4.38;1.90;;;8.80;99.90;;;;;;4965189;28;20026;-46
2024/03/16 10:56:09;;;;;;;4.68;1.20;;;8.70;99.90;;;;;;4926174;28;20033;-50
2024/03/16 10:58:35;;;;;;;4.97;1.20;;;8.70;99.90;;;;;;4918675;28;20022;-50
2024/03/16 11:01:07;;;;;;;5.40;1.52;;;8.80;99.90;;;;;;4965223;28;20073;-52
2024/03/16 11:03:36;;;;;;;7.32;1.60;;;8.90;99.90;;;;;;4916848;28;20088;-49
2024/03/16 11:06:14;;;;;;;8.20;1.50;;;9.10;99.90;;;;;;4924797;28;20022;-57
2024/03/16 11:08:48;;;;;;;5.43;1.33;;;9.30;99.90;;;;;;4992933;28;20026;-50
2024/03/16 11:11:26;;;;;;;4.57;1.05;;;9.30;99.90;;;;;;4920466;28;20109;-48
2024/03/16 11:14:08;;;;;;;6.40;1.50;;;9.40;99.90;;;;;;4912077;28;21554;-49
2024/03/16 11:16:45;;;;;;;11.30;1.88;;;9.60;99.90;;;;;;4903602;28;20568;-50
2024/03/16 11:19:22;;;;;;;6.68;1.73;;;9.70;99.90;;;;;;4967112;28;20426;-49
2024/03/16 11:21:49;;;;;;;6.65;2.05;;;9.50;99.90;;;;;;4924947;28;20076;-48
2024/03/16 11:24:17;;;;;;;4.38;1.55;;;9.50;99.90;;;;;;4912409;28;20353;-52
2024/03/16 11:26:43;;;;;;;8.82;1.65;;;9.60;99.90;;;;;;4960335;28;20058;-49
2024/03/16 11:29:18;;;;;;;3.22;1.33;;;9.60;99.90;;;;;;4911122;28;20502;-48
2024/03/16 11:31:46;;;;;;;5.63;1.70;;;9.60;99.90;;;;;;4915574;28;20048;-50
2024/03/16 11:34:16;;;;;;;10.25;2.10;;;9.40;99.90;;;;;;4957759;28;20022;-47
2024/03/16 11:36:49;;;;;;;7.50;1.90;;;9.30;99.90;;;;;;4897444;28;20030;-54
2024/03/16 11:39:17;;;;;;;13.00;2.13;;;9.30;99.90;;;;;;4922389;28;20022;-50
2024/03/16 11:41:48;;;;;;;7.05;1.65;;;9.30;99.90;;;;;;4975032;28;20030;-50
2024/03/16 11:44:15;;;;;;;10.65;2.10;;;9.40;99.90;;;;;;4911236;28;20084;-47
2024/03/16 11:46:42;;;;;;;9.98;2.38;;;9.40;99.90;;;;;;4910539;28;20112;-49
2024/03/16 11:49:12;;;;;;;6.38;1.58;;;9.40;99.90;;;;;;4947510;28;20034;-51
2024/03/16 11:51:38;;;;;;;16.00;2.35;;;9.40;99.90;;;;;;4909246;28;20046;-50
2024/03/16 11:54:07;;;;;;;7.57;1.75;;;9.50;99.90;;;;;;4912965;28;20057;-55
2024/03/16 11:56:36;;;;;;;4.72;1.25;;;9.70;99.90;;;;;;4957483;28;20442;-49
2024/03/16 11:59:04;;;;;;;6.95;2.40;;;9.90;99.90;;;;;;4902772;28;20516;-49
2024/03/16 12:01:32;;;;;;;7.35;2.13;;;10.00;99.90;;;;;;4940757;28;20390;-56
2024/03/16 12:03:59;;;;;;;6.32;1.92;;;10.00;99.90;;;;;;4957364;28;20030;-47
2024/03/16 12:06:26;;;;;;;9.65;1.50;;;10.10;99.90;;;;;;4914559;28;22769;-50
2024/03/16 12:08:52;;;;;;;9.35;2.15;;;10.20;99.90;;;;;;4954296;28;20057;-52
2024/03/16 12:11:18;;;;;;;9.98;2.25;;;10.20;99.90;;;;;;4912450;28;20118;-49
2024/03/16 12:13:44;;;;;;;10.73;2.13;;;10.20;99.90;;;;;;4909490;28;21779;-46
2024/03/16 12:16:10;;;;;;;14.05;3.53;;;10.20;99.90;;;;;;4959452;28;20088;-50
2024/03/16 12:18:37;;;;;;;6.72;1.98;;;10.10;99.90;;;;;;4913669;28;20050;-50
2024/03/16 12:21:04;;;;;;;8.10;1.58;;;10.10;99.90;;;;;;4915847;28;20489;-55
2024/03/16 12:23:29;;;;;;;12.90;2.78;;;10.30;99.90;;;;;;4947128;28;20034;-46
2024/03/16 12:25:58;;;;;;;11.75;2.03;;;10.20;99.90;;;;;;4904256;28;20037;-49
2024/03/16 12:28:24;;;;;;;6.50;1.52;;;10.20;99.90;;;;;;4951454;28;20026;-49
2024/03/16 12:30:50;;;;;;;10.48;2.17;;;10.20;99.90;;;;;;4908080;28;20029;-55
2024/03/16 12:33:17;;;;;;;6.53;1.85;;;10.10;99.90;;;;;;4905486;28;21504;-47
2024/03/16 12:35:43;;;;;;;6.88;1.83;;;10.10;99.90;;;;;;4951918;28;20026;-49
2024/03/16 12:38:10;;;;;;;9.57;1.55;;;10.10;99.90;;;;;;4898372;28;20034;-46
2024/03/16 12:40:36;;;;;;;8.35;2.53;;;10.10;99.90;;;;;;4899525;28;20498;-56
2024/03/16 12:43:02;;;;;;;6.10;1.38;;;10.10;99.90;;;;;;4946807;28;20040;-46
2024/03/16 12:45:28;;;;;;;5.63;2.00;;;10.10;99.90;;;;;;4901683;28;20026;-48